CPX617 Details

Departure: Watertown International Airport (KART)
Arrival: Washington Dulles International Airport (KIAD)
Route: PAGER V29 SYR V35 PSB V501 HGR V438 LUCKE


Current Weather Information
KART 171656Z AUTO 26007KT 10SM BKN110 24/19 A2999 RMK AO2 RAB45E54 SLP149 P0000 T02390189
KIAD 171652Z 24005KT 10SM FEW040 SCT060 BKN090 BKN250 31/22 A3001 RMK AO2 SLP157 CB DSNT NE T03060222